createdAt,value
2023-02-24T00:02:05.888Z,21.80
2023-02-24T00:05:05.657Z,23.03
2023-02-24T00:07:32.393Z,22.10
2023-02-24T00:09:59.206Z,21.53
2023-02-24T00:12:25.965Z,22.03
2023-02-24T00:14:52.851Z,22.37
2023-02-24T00:17:19.867Z,23.07
2023-02-24T00:19:46.898Z,23.00
2023-02-24T00:22:13.879Z,22.63
2023-02-24T00:24:40.719Z,22.23
2023-02-24T00:27:08.010Z,22.60
2023-02-24T00:29:37.711Z,23.13
2023-02-24T00:32:08.061Z,22.23
2023-02-24T00:34:37.613Z,23.03
2023-02-24T00:37:09.002Z,23.17
2023-02-24T00:39:41.487Z,23.03
2023-02-24T00:42:08.747Z,23.20
2023-02-24T00:44:36.843Z,24.03
2023-02-24T00:47:06.872Z,24.03
2023-02-24T00:49:36.010Z,23.47
2023-02-24T00:52:04.755Z,23.67
2023-02-24T00:54:32.389Z,23.83
2023-02-24T00:56:59.219Z,22.83
2023-02-24T00:59:26.187Z,22.57
2023-02-24T01:01:54.775Z,23.37
2023-02-24T01:04:22.725Z,23.60
2023-02-24T01:07:00.076Z,22.63
2023-02-24T01:09:30.123Z,24.03
2023-02-24T01:12:16.965Z,23.70
2023-02-24T01:14:49.501Z,22.87
2023-02-24T01:17:18.827Z,23.77
2023-02-24T01:19:49.172Z,23.53
2023-02-24T01:22:17.333Z,22.97
2023-02-24T01:24:45.483Z,22.83
2023-02-24T01:27:13.995Z,24.20
2023-02-24T01:29:41.933Z,23.27
2023-02-24T01:32:19.631Z,22.80
2023-02-24T01:34:47.847Z,24.60
2023-02-24T01:37:16.579Z,23.50
2023-02-24T01:39:47.426Z,24.27
2023-02-24T01:42:17.114Z,22.67
2023-02-24T01:44:43.907Z,23.80
2023-02-24T01:47:11.828Z,23.97
2023-02-24T01:49:42.464Z,23.60
2023-02-24T01:52:13.820Z,23.67
2023-02-24T01:54:59.420Z,25.33
2023-02-24T01:57:29.536Z,23.30
2023-02-24T02:00:02.210Z,24.43
2023-02-24T02:02:29.675Z,24.50
2023-02-24T02:05:05.824Z,23.70
2023-02-24T02:07:32.983Z,24.97
2023-02-24T02:10:04.287Z,23.93
2023-02-24T02:12:37.249Z,23.20
2023-02-24T02:15:06.344Z,23.43
2023-02-24T02:17:48.256Z,23.90
2023-02-24T02:20:24.132Z,22.70
2023-02-24T02:23:09.744Z,24.40
2023-02-24T02:25:39.356Z,24.03
2023-02-24T02:28:45.518Z,24.23
2023-02-24T02:31:46.680Z,22.57
2023-02-24T02:34:23.149Z,22.63
2023-02-24T02:37:11.920Z,23.20
2023-02-24T02:39:41.452Z,23.37
2023-02-24T02:42:36.978Z,23.07
2023-02-24T02:45:13.398Z,23.47
2023-02-24T02:48:08.641Z,22.70
2023-02-24T02:50:48.268Z,22.50
2023-02-24T02:53:56.138Z,24.33
2023-02-24T02:56:32.092Z,24.00
2023-02-24T02:59:00.577Z,23.10
2023-02-24T03:01:34.085Z,24.67
2023-02-24T03:04:05.253Z,23.33
2023-02-24T03:06:48.636Z,24.10
2023-02-24T03:09:22.774Z,24.23
2023-02-24T03:11:54.579Z,24.77
2023-02-24T03:14:26.678Z,25.53
2023-02-24T03:16:56.268Z,24.63
2023-02-24T03:19:37.856Z,25.60
2023-02-24T03:22:14.692Z,24.50
2023-02-24T03:24:42.597Z,25.10
2023-02-24T03:27:31.253Z,25.80
2023-02-24T03:30:09.711Z,25.37
2023-02-24T03:33:10.145Z,26.13
2023-02-24T03:35:42.259Z,26.13
2023-02-24T03:38:10.744Z,27.57
2023-02-24T03:40:39.108Z,26.60
2023-02-24T03:43:22.608Z,27.53
2023-02-24T03:45:50.039Z,27.43
2023-02-24T03:48:17.410Z,27.67
2023-02-24T03:50:45.000Z,29.27
2023-02-24T03:53:47.680Z,30.03
2023-02-24T03:56:58.724Z,28.50
2023-02-24T03:59:44.575Z,29.57
2023-02-24T04:02:40.468Z,28.17
2023-02-24T04:05:23.670Z,31.30
2023-02-24T04:08:00.506Z,29.20
2023-02-24T04:10:52.587Z,29.80
2023-02-24T04:13:43.412Z,31.23
2023-02-24T04:16:29.038Z,30.43
2023-02-24T04:19:03.818Z,29.77
2023-02-24T04:21:32.283Z,30.60
2023-02-24T04:24:06.353Z,31.67
2023-02-24T04:26:40.430Z,31.73
2023-02-24T04:29:09.230Z,32.07
2023-02-24T04:31:39.096Z,32.43
2023-02-24T04:34:09.526Z,33.37
2023-02-24T04:36:38.377Z,33.47
2023-02-24T04:39:05.224Z,33.70
2023-02-24T04:41:32.102Z,34.90
2023-02-24T04:43:58.876Z,33.67
2023-02-24T04:46:25.703Z,34.87
2023-02-24T04:48:52.494Z,35.43
2023-02-24T04:51:21.013Z,35.10
2023-02-24T04:53:49.735Z,34.13
2023-02-24T04:56:18.664Z,36.27
2023-02-24T04:58:46.460Z,36.27
2023-02-24T05:01:13.384Z,36.43
2023-02-24T05:03:43.254Z,38.07
2023-02-24T05:06:17.888Z,36.77
2023-02-24T05:08:45.210Z,38.30
2023-02-24T05:11:16.575Z,38.77
2023-02-24T05:13:47.121Z,37.00
2023-02-24T05:16:17.225Z,38.10
2023-02-24T05:18:44.877Z,38.40
2023-02-24T05:21:32.865Z,38.20
2023-02-24T05:24:04.621Z,38.03
2023-02-24T05:26:32.161Z,38.43
2023-02-24T05:29:01.985Z,39.47
2023-02-24T05:31:30.973Z,41.13
2023-02-24T05:34:03.162Z,41.17
2023-02-24T05:36:33.532Z,40.07
2023-02-24T05:39:20.848Z,40.23
2023-02-24T05:41:49.548Z,40.07
2023-02-24T05:44:23.383Z,40.63
2023-02-24T05:46:58.495Z,40.40
2023-02-24T05:49:33.801Z,40.27
2023-02-24T05:52:07.695Z,40.73
2023-02-24T05:54:40.322Z,42.27
2023-02-24T05:57:24.801Z,41.13
2023-02-24T05:59:53.206Z,40.27
2023-02-24T06:02:27.551Z,40.67
2023-02-24T06:04:55.669Z,40.60
2023-02-24T06:07:34.218Z,41.27
2023-02-24T06:10:04.788Z,41.60
2023-02-24T06:12:33.878Z,40.20
2023-02-24T06:15:00.803Z,41.63
2023-02-24T06:17:28.786Z,41.47
2023-02-24T06:19:56.090Z,41.37
2023-02-24T06:22:25.149Z,41.77
2023-02-24T06:24:54.176Z,40.47
2023-02-24T06:27:21.857Z,40.83
2023-02-24T06:29:51.068Z,41.70
2023-02-24T06:32:24.600Z,41.47
2023-02-24T06:34:52.279Z,41.93
2023-02-24T06:37:19.710Z,41.27
2023-02-24T06:39:46.526Z,42.10
2023-02-24T06:42:13.752Z,40.37
2023-02-24T06:44:41.846Z,39.80
2023-02-24T06:47:13.328Z,39.87
2023-02-24T06:49:41.627Z,40.37
2023-02-24T06:52:08.733Z,40.70
2023-02-24T06:54:35.956Z,40.33
2023-02-24T06:57:04.143Z,40.63
2023-02-24T06:59:32.212Z,40.37
2023-02-24T07:02:02.098Z,39.80
2023-02-24T07:04:29.435Z,38.57
2023-02-24T07:07:03.458Z,38.43
2023-02-24T07:09:31.569Z,38.67
2023-02-24T07:12:02.602Z,37.70
2023-02-24T07:14:33.149Z,38.47
2023-02-24T07:17:00.249Z,37.07
2023-02-24T07:19:29.590Z,37.17
2023-02-24T07:22:02.154Z,35.93
2023-02-24T07:24:46.202Z,36.30
2023-02-24T07:27:22.192Z,36.00
2023-02-24T07:29:52.989Z,33.70
2023-02-24T07:32:25.425Z,34.00
2023-02-24T07:34:53.113Z,34.17
2023-02-24T07:37:20.705Z,34.90
2023-02-24T07:39:47.690Z,33.47
2023-02-24T07:42:14.730Z,34.17
2023-02-24T07:44:44.547Z,33.83
2023-02-24T07:47:11.463Z,33.47
2023-02-24T07:49:40.963Z,33.70
2023-02-24T07:52:08.756Z,33.10
2023-02-24T07:54:42.304Z,32.17
2023-02-24T07:57:13.882Z,33.33
2023-02-24T07:59:48.074Z,32.00
2023-02-24T08:02:15.916Z,32.37
2023-02-24T08:04:50.411Z,32.47
2023-02-24T08:07:25.766Z,32.30
2023-02-24T08:10:24.326Z,33.37
2023-02-24T08:13:03.025Z,31.63
2023-02-24T08:15:34.005Z,32.17
2023-02-24T08:18:02.450Z,30.73
2023-02-24T08:20:52.459Z,32.00
2023-02-24T08:23:19.546Z,30.83
2023-02-24T08:25:47.486Z,31.30
2023-02-24T08:28:14.387Z,29.60
2023-02-24T08:30:46.860Z,30.17
2023-02-24T08:33:19.995Z,29.60
2023-02-24T08:35:51.971Z,30.57
2023-02-24T08:38:20.878Z,29.37
2023-02-24T08:40:53.705Z,29.07
2023-02-24T08:43:30.964Z,27.43
2023-02-24T08:46:13.476Z,26.77
2023-02-24T08:48:43.083Z,26.73
2023-02-24T08:51:12.302Z,27.30
2023-02-24T08:53:42.323Z,27.07
2023-02-24T08:56:12.002Z,25.73
2023-02-24T08:58:49.925Z,24.77
2023-02-24T09:01:19.206Z,26.00
2023-02-24T09:03:48.749Z,23.67
2023-02-24T09:06:25.360Z,24.33
2023-02-24T09:09:15.966Z,22.90
2023-02-24T09:11:47.388Z,23.20
2023-02-24T09:14:27.271Z,23.53
2023-02-24T09:17:02.312Z,23.20
2023-02-24T09:19:52.287Z,24.97
2023-02-24T09:22:32.789Z,22.83
2023-02-24T09:25:24.374Z,22.67
2023-02-24T09:28:17.761Z,22.20
2023-02-24T09:30:55.671Z,22.27
2023-02-24T09:33:39.835Z,22.90
2023-02-24T09:36:20.327Z,22.13
2023-02-24T09:38:59.493Z,21.07
2023-02-24T09:41:53.840Z,22.77
2023-02-24T09:44:24.488Z,22.07
2023-02-24T09:47:31.296Z,21.53
2023-02-24T09:50:05.641Z,20.90
2023-02-24T09:52:41.883Z,21.50
2023-02-24T09:55:25.079Z,21.07
2023-02-24T09:58:16.219Z,22.23
2023-02-24T10:00:55.751Z,20.97
2023-02-24T10:03:48.275Z,22.37
2023-02-24T10:06:35.230Z,20.60
2023-02-24T10:09:21.479Z,21.90
2023-02-24T10:11:56.148Z,21.30
2023-02-24T10:14:43.661Z,22.60
2023-02-24T10:17:23.066Z,22.40
2023-02-24T10:20:28.582Z,20.03
2023-02-24T10:23:05.679Z,19.73
2023-02-24T10:25:54.261Z,21.47
2023-02-24T10:28:39.826Z,21.17
2023-02-24T10:31:30.547Z,19.90
2023-02-24T10:34:09.137Z,19.73
2023-02-24T10:36:36.674Z,18.80
2023-02-24T10:39:16.988Z,19.20
2023-02-24T10:41:49.566Z,17.47
2023-02-24T10:44:24.686Z,16.40
2023-02-24T10:47:11.721Z,17.80
2023-02-24T10:49:57.730Z,16.73
2023-02-24T10:52:48.961Z,16.90
2023-02-24T10:55:42.493Z,16.47
2023-02-24T10:58:38.045Z,13.97
2023-02-24T11:01:54.941Z,12.90
2023-02-24T11:04:28.323Z,13.37
2023-02-24T11:07:24.644Z,13.10
2023-02-24T11:10:13.984Z,11.60
2023-02-24T11:13:19.216Z,9.60
2023-02-24T11:16:09.704Z,9.33
2023-02-24T11:18:39.209Z,7.63
2023-02-24T11:21:09.676Z,7.57
2023-02-24T11:23:43.175Z,8.73
2023-02-24T11:26:09.993Z,7.00
2023-02-24T11:28:43.773Z,6.50
2023-02-24T11:31:18.143Z,6.63
2023-02-24T11:33:57.272Z,6.20
2023-02-24T11:36:29.730Z,6.23
2023-02-24T11:39:22.706Z,6.97
2023-02-24T11:41:55.519Z,6.33
2023-02-24T11:44:58.248Z,6.33
2023-02-24T11:47:36.835Z,6.73
2023-02-24T11:50:23.622Z,6.20
2023-02-24T11:52:54.271Z,6.00
2023-02-24T11:55:38.777Z,6.30
2023-02-24T11:58:30.102Z,5.90
2023-02-24T12:01:33.736Z,5.70
2023-02-24T12:04:17.678Z,5.57
2023-02-24T12:07:06.824Z,6.33
2023-02-24T12:10:14.458Z,6.00
2023-02-24T12:13:08.562Z,6.03
2023-02-24T12:15:59.082Z,6.53
2023-02-24T12:18:39.354Z,6.33
2023-02-24T12:21:19.341Z,6.13
2023-02-24T12:23:48.438Z,6.73
2023-02-24T12:26:29.666Z,6.00
2023-02-24T12:29:20.530Z,6.13
2023-02-24T12:32:10.915Z,6.40
2023-02-24T12:35:01.043Z,5.93
2023-02-24T12:37:58.677Z,6.43
2023-02-24T12:40:53.214Z,6.67
2023-02-24T12:43:32.026Z,7.07
2023-02-24T12:46:05.030Z,7.57
2023-02-24T12:48:46.940Z,8.03
2023-02-24T12:51:19.972Z,7.60
2023-02-24T12:54:13.031Z,7.97
2023-02-24T12:57:01.517Z,7.97
2023-02-24T12:59:33.979Z,8.00
2023-02-24T13:02:35.473Z,7.73
2023-02-24T13:05:17.176Z,7.57
2023-02-24T13:08:01.456Z,7.77
2023-02-24T13:10:49.671Z,8.13
2023-02-24T13:13:27.204Z,7.97
2023-02-24T13:15:57.496Z,8.20
2023-02-24T13:18:34.019Z,8.40
2023-02-24T13:21:02.818Z,8.53
2023-02-24T13:23:31.744Z,8.43
2023-02-24T13:26:00.223Z,8.10
2023-02-24T13:28:33.427Z,8.70
2023-02-24T13:31:09.307Z,8.60
2023-02-24T13:33:42.030Z,8.27
2023-02-24T13:36:22.026Z,8.17
2023-02-24T13:38:52.489Z,7.80
2023-02-24T13:41:33.902Z,8.37
2023-02-24T13:44:21.039Z,8.53
2023-02-24T13:47:12.650Z,7.87
2023-02-24T13:49:48.428Z,8.67
2023-02-24T13:52:42.380Z,8.93
2023-02-24T13:55:23.663Z,9.63
2023-02-24T13:58:16.619Z,9.40
2023-02-24T14:01:10.904Z,9.17
2023-02-24T14:03:40.597Z,9.63
2023-02-24T14:06:19.104Z,10.07
2023-02-24T14:08:51.153Z,10.13
2023-02-24T14:11:18.785Z,10.63
2023-02-24T14:13:49.775Z,10.40
2023-02-24T14:16:22.626Z,10.93
2023-02-24T14:18:55.838Z,11.13
2023-02-24T14:21:25.817Z,11.20
2023-02-24T14:24:17.118Z,11.37
2023-02-24T14:26:55.631Z,11.47
2023-02-24T14:29:32.053Z,10.27
2023-02-24T14:32:00.063Z,11.00
2023-02-24T14:34:30.386Z,10.47
2023-02-24T14:36:59.472Z,10.90
2023-02-24T14:39:31.509Z,11.50
2023-02-24T14:42:07.670Z,10.93
2023-02-24T14:44:41.675Z,10.60
2023-02-24T14:47:11.296Z,10.93
2023-02-24T14:49:38.660Z,10.50
2023-02-24T14:52:36.956Z,10.70
2023-02-24T14:55:22.530Z,9.67
2023-02-24T14:58:01.111Z,10.57
2023-02-24T15:00:36.125Z,11.00
2023-02-24T15:03:11.989Z,11.40
2023-02-24T15:05:47.484Z,11.13
2023-02-24T15:08:27.325Z,12.30
2023-02-24T15:10:54.350Z,12.20
2023-02-24T15:13:35.779Z,12.87
2023-02-24T15:16:18.767Z,13.43
2023-02-24T15:18:51.385Z,14.00
2023-02-24T15:21:28.015Z,13.30
2023-02-24T15:24:18.726Z,13.77
2023-02-24T15:26:57.426Z,14.40
2023-02-24T15:29:27.804Z,13.80
2023-02-24T15:32:00.358Z,13.30
2023-02-24T15:34:35.065Z,13.23
2023-02-24T15:37:31.483Z,12.97
2023-02-24T15:40:07.225Z,13.13
2023-02-24T15:42:35.647Z,13.90
2023-02-24T15:45:05.953Z,14.70
2023-02-24T15:47:43.268Z,13.90
2023-02-24T15:50:11.930Z,14.03
2023-02-24T15:52:40.519Z,14.47
2023-02-24T15:55:10.283Z,14.33
2023-02-24T15:57:37.301Z,14.43
2023-02-24T16:00:13.477Z,13.97
2023-02-24T16:02:41.843Z,14.97
2023-02-24T16:05:15.608Z,14.93
2023-02-24T16:07:45.011Z,15.27
2023-02-24T16:10:19.460Z,15.17
2023-02-24T16:13:03.323Z,15.23
2023-02-24T16:15:38.016Z,14.97
2023-02-24T16:18:14.236Z,13.87
2023-02-24T16:20:41.794Z,14.30
2023-02-24T16:23:10.738Z,14.70
2023-02-24T16:25:45.165Z,15.10
2023-02-24T16:28:22.816Z,14.50
2023-02-24T16:30:51.541Z,13.97
2023-02-24T16:33:21.123Z,14.80
2023-02-24T16:35:49.367Z,12.83
2023-02-24T16:38:21.302Z,12.03
2023-02-24T16:40:49.828Z,10.83
2023-02-24T16:43:16.726Z,10.57
2023-02-24T16:46:01.695Z,10.67
2023-02-24T16:48:34.662Z,11.27
2023-02-24T16:51:02.429Z,11.00
2023-02-24T16:53:29.611Z,10.50
2023-02-24T16:55:59.742Z,11.30
2023-02-24T16:58:27.010Z,11.20
2023-02-24T17:00:59.125Z,10.70
2023-02-24T17:03:29.898Z,11.17
2023-02-24T17:06:01.004Z,11.20
2023-02-24T17:08:28.193Z,10.80
2023-02-24T17:10:55.875Z,10.60
2023-02-24T17:13:22.701Z,10.00
2023-02-24T17:15:57.687Z,11.20
2023-02-24T17:18:26.390Z,11.03
2023-02-24T17:20:53.924Z,10.33
2023-02-24T17:23:20.892Z,10.70
2023-02-24T17:25:55.023Z,10.33
2023-02-24T17:28:22.768Z,9.93
2023-02-24T17:30:49.712Z,9.63
2023-02-24T17:33:16.898Z,9.07
2023-02-24T17:35:44.744Z,8.83
2023-02-24T17:38:13.606Z,8.83
2023-02-24T17:40:41.554Z,8.60
2023-02-24T17:43:08.925Z,8.87
2023-02-24T17:45:43.444Z,9.03
2023-02-24T17:48:12.079Z,9.23
2023-02-24T17:50:42.314Z,9.83
2023-02-24T17:53:10.447Z,9.83
2023-02-24T17:55:37.689Z,9.30
2023-02-24T17:58:04.674Z,9.63
2023-02-24T18:00:31.711Z,9.47
2023-02-24T18:02:58.806Z,9.00
2023-02-24T18:05:26.474Z,9.77
2023-02-24T18:07:53.613Z,9.60
2023-02-24T18:10:20.642Z,9.57
2023-02-24T18:12:47.506Z,9.63
2023-02-24T18:15:14.417Z,10.53
2023-02-24T18:17:41.424Z,9.93
2023-02-24T18:20:09.423Z,10.30
2023-02-24T18:22:36.409Z,9.63
2023-02-24T18:25:03.511Z,9.67
2023-02-24T18:27:30.321Z,9.77
2023-02-24T18:29:57.240Z,9.60
2023-02-24T18:32:24.348Z,10.20
2023-02-24T18:34:51.412Z,9.83
2023-02-24T18:37:18.352Z,9.73
2023-02-24T18:39:45.197Z,10.07
2023-02-24T18:42:12.020Z,10.93
2023-02-24T18:44:38.881Z,9.83
2023-02-24T18:47:09.528Z,10.03
2023-02-24T18:49:37.333Z,10.77
2023-02-24T18:52:05.568Z,10.60
2023-02-24T18:54:34.386Z,10.13
2023-02-24T18:57:01.984Z,10.73
2023-02-24T18:59:29.028Z,11.40
2023-02-24T19:01:56.936Z,11.10
2023-02-24T19:04:24.954Z,11.17
2023-02-24T19:06:51.919Z,10.50
2023-02-24T19:09:21.949Z,11.90
2023-02-24T19:11:49.812Z,11.33
2023-02-24T19:14:17.572Z,12.13
2023-02-24T19:16:44.937Z,12.77
2023-02-24T19:19:16.425Z,12.83
2023-02-24T19:21:48.296Z,13.07
2023-02-24T19:24:15.949Z,13.00
2023-02-24T19:26:43.965Z,14.47
2023-02-24T19:29:11.435Z,14.73
2023-02-24T19:31:39.121Z,16.77
2023-02-24T19:34:08.533Z,14.93
2023-02-24T19:36:36.432Z,16.60
2023-02-24T19:39:04.786Z,16.37
2023-02-24T19:41:31.700Z,15.23
2023-02-24T19:43:58.506Z,14.53
2023-02-24T19:46:25.848Z,14.43
2023-02-24T19:48:52.999Z,14.47
2023-02-24T19:51:22.257Z,14.03
2023-02-24T19:53:53.086Z,13.80
2023-02-24T19:56:29.786Z,13.83
2023-02-24T19:58:58.716Z,13.67
2023-02-24T20:01:27.914Z,13.17
2023-02-24T20:03:56.984Z,13.67
2023-02-24T20:06:31.592Z,12.77
2023-02-24T20:09:00.390Z,13.93
2023-02-24T20:11:29.790Z,13.43
2023-02-24T20:13:56.774Z,14.27
2023-02-24T20:16:25.735Z,14.50
2023-02-24T20:18:55.354Z,14.47
2023-02-24T20:21:22.525Z,14.83
2023-02-24T20:23:49.564Z,14.37
2023-02-24T20:26:16.672Z,15.10
2023-02-24T20:28:44.921Z,14.67
2023-02-24T20:31:15.383Z,15.13
2023-02-24T20:33:43.708Z,15.17
2023-02-24T20:36:16.599Z,15.47
2023-02-24T20:38:43.783Z,14.30
2023-02-24T20:41:11.405Z,15.17
2023-02-24T20:43:38.461Z,14.97
2023-02-24T20:46:26.765Z,15.40
2023-02-24T20:49:01.639Z,14.73
2023-02-24T20:51:30.500Z,14.80
2023-02-24T20:53:58.748Z,14.77
2023-02-24T20:56:33.155Z,15.27
2023-02-24T20:59:01.307Z,14.83
2023-02-24T21:01:29.402Z,15.07
2023-02-24T21:03:56.686Z,14.20
2023-02-24T21:06:24.364Z,14.03
2023-02-24T21:08:53.247Z,13.10
2023-02-24T21:11:21.230Z,14.27
2023-02-24T21:13:49.886Z,13.50
2023-02-24T21:16:18.566Z,13.20
2023-02-24T21:18:47.115Z,13.17
2023-02-24T21:21:15.381Z,13.30
2023-02-24T21:23:43.318Z,13.80
2023-02-24T21:26:11.377Z,13.77
2023-02-24T21:28:38.920Z,13.57
2023-02-24T21:31:14.935Z,13.40
2023-02-24T21:33:41.918Z,14.30
2023-02-24T21:36:13.572Z,13.23
2023-02-24T21:38:41.343Z,13.50
2023-02-24T21:41:15.956Z,14.00
2023-02-24T21:43:44.339Z,13.50
2023-02-24T21:46:13.258Z,13.33
2023-02-24T21:48:40.803Z,14.40
2023-02-24T21:51:10.003Z,14.17
2023-02-24T21:53:39.426Z,14.10
2023-02-24T21:56:18.578Z,13.67
2023-02-24T21:58:54.172Z,14.10
2023-02-24T22:01:24.407Z,15.33
2023-02-24T22:03:56.036Z,15.60
2023-02-24T22:06:24.234Z,16.93
2023-02-24T22:08:51.163Z,17.60
2023-02-24T22:11:18.850Z,17.93
2023-02-24T22:13:46.841Z,18.13
2023-02-24T22:16:23.249Z,17.73
2023-02-24T22:18:51.924Z,17.90
2023-02-24T22:21:21.207Z,18.03
2023-02-24T22:23:50.152Z,17.83
2023-02-24T22:26:18.982Z,18.73
2023-02-24T22:28:48.129Z,18.97
2023-02-24T22:31:17.744Z,19.50
2023-02-24T22:33:45.514Z,19.33
2023-02-24T22:36:18.067Z,18.27
2023-02-24T22:38:48.136Z,18.43
2023-02-24T22:41:20.097Z,18.70
2023-02-24T22:43:47.598Z,18.00
2023-02-24T22:46:17.361Z,19.10
2023-02-24T22:48:44.491Z,17.33
2023-02-24T22:51:13.131Z,18.90
2023-02-24T22:53:44.033Z,17.07
2023-02-24T22:56:13.112Z,18.10
2023-02-24T22:58:40.052Z,17.53
2023-02-24T23:01:13.100Z,16.63
2023-02-24T23:03:40.322Z,16.87
2023-02-24T23:06:10.379Z,17.23
2023-02-24T23:08:39.134Z,16.93
2023-02-24T23:11:08.750Z,16.27
2023-02-24T23:13:35.703Z,17.03
2023-02-24T23:16:03.591Z,16.03
2023-02-24T23:18:31.954Z,15.97
2023-02-24T23:21:00.831Z,16.40
2023-02-24T23:23:28.204Z,15.20
2023-02-24T23:25:55.054Z,15.93
2023-02-24T23:28:21.866Z,16.03
2023-02-24T23:30:48.762Z,16.73
2023-02-24T23:33:15.626Z,15.93
2023-02-24T23:35:42.451Z,16.10
2023-02-24T23:38:10.156Z,14.73
2023-02-24T23:40:49.743Z,15.87
2023-02-24T23:43:20.393Z,15.83
2023-02-24T23:45:47.326Z,13.70
2023-02-24T23:48:14.767Z,13.10
2023-02-24T23:50:42.701Z,12.57
2023-02-24T23:53:10.302Z,12.10
2023-02-24T23:55:40.849Z,11.47
2023-02-24T23:58:08.422Z,11.50
